Airfield :
LOGIN :

Register | Disclaimer

   EN    FR    IT 

 










Legend :    VFR   Marginal VFR   IFR   Intensive IFR   Very Intensive IFR
Visi :
Ceiling :
>= 8 km
>= 3000ft
5 to 8 km
1000 to 3000 ft
1500m to 5 km
500 to 1000 ft
800 to 1500m
200 to 500 ft
< 800m
< 200 ft
Symbols :   Thunderstorms  Fog  Heavy snow  Heavy precipitations  Wind > 20 kt
SIGMETs :     Misc.  Thunderstorms  Icing  Turbulence  Mountain Waves  Volcanic Ashes






- Airport Elevation : 26 ft
- IATA code : BIA


LFKB - Bastia

CURRENT METAR :
  • 050730Z AUTO 08007KT 040V140 9999 FEW064 26/19 Q1009 TEMPO 24012KT

EXPIRED METARs :
  • 050700Z AUTO 13006KT 9999 FEW001 26/19 Q1009 BECMG 24012KT
  • 050630Z AUTO 14005KT 080V150 CAVOK 25/19 Q1009 BECMG 24012KT
  • 050600Z AUTO 18004KT 150V220 CAVOK 24/17 Q1009 NOSIG
  • 050530Z AUTO 18005KT CAVOK 22/16 Q1009 BECMG 24012KT
  • 050500Z AUTO 19006KT CAVOK 20/14 Q1009 NOSIG

TAF TAF LFKB
Valid from the 05 at 03:00 until the 06 at 03:00 UTC


050200Z 0503/0603 24004KT CAVOK TX31/0512Z TN20/0603Z
TEMPO 0503/0504 22010KT
BECMG 0504/0506 24012KT
BECMG 0509/0511 10012KT
BECMG 0520/0521 23004KT
ATIS : +33 4 95 59 19 40



MET'MAP, your aeronautical weather chart ! - Copyright ORBIFLY December 2007 - Disclaimer

ORBIFLY MET'MAP TEAM :

Programming & Development : Alexandra Zaïnal
Concept & original design : Baudouin d'Aumeries
Assistance for programming : Marc-Olivier Méhu
Technical & hardware support : Manuel Goepfert

Contact : metmap@orbifly.com




SOURCES & CREDITS :

   NOAA